Amador Station, California
Current Conditions -  °F | °C
As of 8:35 AM on Saturday 22 Nov 2014 (Local Time) from KPVF Reporting Station
Overcast Overcast  
Wind Chill: 42°   Ceiling: 200
Heat Index: 48°   Visibility: 0.25mi
Dew Point: 48°   Wind: 15mph
Humidity: 100%   Direction: 170°S
Pressure: 30.08"   Gusts: 20mph
Location:  38.5644°N, 120.32°W
Report Text: KPVF 221635Z AUTO 17013G17KT 1/4SM OVC002 09/09 A3008 RMK AO1 P0006
Loading
Personal Weather Stations






























Interactive Weather Map New forecast layout! Learn more

10-Day Weather Forecast

Advertisements
Track Severe Weather on mobile